Upper Greasewood Trading Pos, Arizona
Current Conditions -  °F | °C
As of 6:53 PM on Saturday 22 Nov 2014 (Local Time) from KFMN Reporting Station
Broken Clouds Broken Clouds  
Wind Chill: 40°   Ceiling: 9500
Heat Index: 40°   Visibility: 10mi
Dew Point: 21°   Wind: 3mph
Humidity: 47%   Direction: 100°E
Pressure: 29.89"   Gusts: NA
Location:  36.4446°N, 109.262°W
Report Text: KFMN 230153Z 10003KT 10SM BKN095 04/M06 A2989 RMK AO2 SLP139 T00441061
Loading
Personal Weather Stations






























Interactive Weather Map New forecast layout! Learn more

10-Day Weather Forecast

Advertisements
Track Severe Weather on mobile